• Join FlightAware (Why Join?)
  • Login
  • US Flag 
05:43AM EDT


 

Airport Tracker/Info


-or-


 

Live Flight TrackerFlight Track Log ✈ UAL252 ✈ 21-Jun-2013 ✈ KIAH - KSMF

Flight Track Log - Related Links

Times and Time Zones

All times are in EDT time to prevent confusion due to time zone crossing. See the UAL252 flight status page for this flight to view local times or setup timezone preferences in your user account.

Time Position Orientation Groundspeed Altitude Reporting Facility
EDT Latitude Longitude Course Direction KTS MPH feet Rate Location/Type
11:30PM 29.9531 -95.3397 276° West 192 221 1,300  Level Houston Center
11:31PM 29.9372 -95.3514 213° Southwest 173 199 1,800 1,140 Climbing Houston Center
11:32PM 29.9381 -95.4083 271° West 226 260 2,900 1,920 Climbing Houston Center
11:33PM 29.9561 -95.5131 281° West 283 326 5,800 2,400 Climbing Houston Center
11:34PM 30.0371 -95.8445 276° West  Level FlightAware Approximate
11:34PM 29.9706 -95.5806 284° West 286 329 7,900  Level Houston Center
11:35PM 30.0478 -95.9732 276° West  Level FlightAware Approximate
11:35PM 29.9889 -95.6719 283° West 294 338 10,500  Level Houston Center
11:36PM 30.0709 -96.0967 276° West  Level FlightAware Approximate
11:36PM 30.0089 -95.7739 283° West 322 371 11,400  Level Houston Center
11:37PM 30.0314 -95.8953 282° West 383 441 13,100 1,680 Climbing Houston Center
11:38PM 30.0564 -96.0219 283° West 395 455 14,900 1,800 Climbing Houston Center
11:39PM 30.0892 -96.1758 284° West 415 478 16,800 1,680 Climbing Houston Center
11:40PM 30.1197 -96.3039 285° West 416 479 18,400 1,440 Climbing Houston Center
11:41PM 30.1492 -96.4272 285° West 419 482 19,800 1,380 Climbing Houston Center
11:42PM 30.1800 -96.5639 285° West 431 496 21,300 1,200 Climbing Houston Center
11:43PM 30.2108 -96.7000 285° West 433 498 22,300 1,020 Climbing Houston Center
11:44PM 30.2425 -96.8419 285° West 446 513 23,400 1,080 Climbing Houston Center
11:45PM 30.2756 -96.9828 285° West 449 517 24,500 1,080 Climbing Houston Center
11:46PM 30.3089 -97.1256 285° West 453 521 25,600 960 Climbing Houston Center
11:47PM 30.3411 -97.2717 284° West 459 528 26,500 840 Climbing Houston Center
11:48PM 30.3739 -97.4183 285° West 463 533 27,400 1,020 Climbing Houston Center
11:49PM 30.4072 -97.5644 285° West 462 532 28,600 1,140 Climbing Houston Center
11:50PM 30.4386 -97.7081 284° West 455 524 29,700 1,080 Climbing Houston Center
11:51PM 30.4708 -97.8522 285° West 455 524 30,900 1,140 Climbing Houston Center
11:52PM 30.5014 -97.9908 284° West 443 510 32,000 540 Climbing Houston Center
11:53PM 30.5308 -98.1297 284° West 438 504 32,000  Level Houston Center
11:54PM 30.5617 -98.2703 284° West 443 510 32,000  Level Houston Center
11:55PM 30.5931 -98.4097 285° West 443 510 32,000  Level Houston Center
11:56PM 30.6228 -98.5486 284° West 440 506 32,000 -60 Level Houston Center
11:57PM 30.6517 -98.6872 284° West 438 504 31,900 -60 Descending Houston Center
11:58PM 30.6817 -98.8261 284° West 438 504 31,900  Level Houston Center
11:59PM 30.7106 -98.9653 284° West 440 506 32,000  Climbing Houston Center
12:00AM 30.7425 -99.1056 285° West 443 510 32,000 -60 Level Houston Center
12:01AM 30.7692 -99.2431 283° West 445 512 31,900  Descending Houston Center
12:02AM 30.7983 -99.3833 284° West 447 514 32,000  Climbing Houston Center
12:03AM 30.8286 -99.5244 284° West 450 518 32,000 -60 Level Houston Center
12:04AM 30.8569 -99.6636 283° West 448 516 31,900 -60 Descending Houston Center
12:05AM 30.8858 -99.8039 284° West 447 514 31,900  Level Houston Center
12:06AM 30.9147 -99.9442 284° West 448 516 31,900  Level Houston Center
12:07AM 30.9425 -100.0842 283° West 447 514 31,900  Level Houston Center
12:08AM 30.9708 -100.2258 283° West 450 518 31,900  Level Houston Center
12:09AM 30.9989 -100.3667 283° West 450 518 31,900 300 Level Houston Center
12:10AM 31.0261 -100.5053 283° West 443 510 32,600 960 Climbing Houston Center
12:11AM 31.0539 -100.6419 283° West 435 501 33,900 600 Climbing Houston Center
12:12AM 31.0858 -100.7978 283° West 413 475 33,900  Level Houston Center
12:13AM 31.1092 -100.9411 281° West 447 514 33,900  Level Houston Center
12:14AM 31.1361 -101.0772 283° West 442 509 33,900  Level Houston Center
12:15AM 31.1661 -101.2103 285° West 431 496 34,000  Climbing Houston Center
12:16AM 31.2100 -101.3458 291° West 443 510 34,000 -60 Level Houston Center
12:17AM 31.2828 -101.4594 307° West 442 509 33,900 -60 Descending Houston Center
12:18AM 31.3589 -101.5672 310° West 433 498 33,900  Level Houston Center
12:19AM 31.4325 -101.6756 309° West 429 494 33,900 480 Level Houston Center
12:20AM 31.5061 -101.7808 309° West 425 489 34,900 840 Climbing Houston Center
12:21AM 31.5781 -101.8869 309° West 422 486 35,600 480 Climbing Houston Center
12:22AM 31.6517 -101.9931 309° West 422 486 35,900 120 Climbing Houston Center
12:23AM 31.7239 -102.0992 309° West 421 484 35,900  Level Houston Center
12:24AM 31.7983 -102.2064 309° West 427 491 35,900  Level Fort Worth Center
12:25AM 31.8672 -102.3153 307° West 427 491 35,900  Level Fort Worth Center
12:26AM 31.9403 -102.4194 310° West 427 491 35,900  Level Fort Worth Center
12:27AM 32.0111 -102.5261 308° West 422 486 35,900  Level Fort Worth Center
12:28AM 32.0819 -102.6281 309° West 422 486 35,900  Level Fort Worth Center
12:29AM 32.1506 -102.7375 307° West 422 486 36,000  Climbing Fort Worth Center
12:30AM 32.2233 -102.8425 309° West 422 486 36,000  Level Fort Worth Center
12:31AM 32.2881 -102.9372 309° West 422 486 36,000  Level Fort Worth Center
12:34AM 32.4331 -103.2325 300° West 417 480 36,000  Level Albuquerque Center
12:35AM 32.4578 -103.3667 282° West 417 480 36,000  Level Albuquerque Center
12:36AM 32.4814 -103.5019 282° West 419 482 36,000  Level Albuquerque Center
12:37AM 32.5056 -103.6386 282° West 424 488 36,000  Level Albuquerque Center
12:38AM 32.5861 -103.7453 312° West 438 504 36,000  Level Albuquerque Center
12:39AM 32.6697 -103.8636 310° West 441 507 36,000  Level Albuquerque Center
12:40AM 32.7358 -103.9817 304° West 431 496 36,000 -60 Level Albuquerque Center
12:41AM 32.8031 -104.0986 304° West 426 490 35,900 -60 Descending Albuquerque Center
12:42AM 32.8731 -104.2261 303° West 427 491 35,900  Level Albuquerque Center
12:43AM 32.9392 -104.3442 304° West 428 493 36,000  Climbing Albuquerque Center
12:44AM 33.0050 -104.4625 304° West 427 491 36,000  Level Albuquerque Center
12:45AM 33.0700 -104.5819 303° West 426 490 36,000 -60 Level Albuquerque Center
12:46AM 33.1364 -104.7025 303° West 430 495 35,900  Descending Albuquerque Center
12:47AM 33.2042 -104.8242 304° West 436 502 36,000  Climbing Albuquerque Center
12:48AM 33.2719 -104.9453 304° West 437 503 36,000  Level Albuquerque Center
12:49AM 33.3386 -105.0661 303° West 435 501 36,000  Level Albuquerque Center
12:50AM 33.4050 -105.1867 303° West 434 499 36,000  Level Albuquerque Center
12:51AM 33.4700 -105.3047 303° West 425 489 36,000  Level Albuquerque Center
12:52AM 33.5389 -105.4306 303° West 421 484 36,000  Level Albuquerque Center
12:53AM 33.6019 -105.5483 303° West 419 482 36,000 -60 Level Albuquerque Center
12:54AM 33.6622 -105.6547 304° West 418 481 35,900 -60 Descending Albuquerque Center
12:55AM 33.7253 -105.7728 303° West 419 482 35,900  Level Albuquerque Center
12:56AM 33.7956 -105.9039 303° West 419 482 36,000  Climbing Albuquerque Center
12:57AM 33.8506 -106.0058 303° West 418 481 35,900 -60 Descending Albuquerque Center
12:58AM 33.9139 -106.1239 303° West 419 482 35,900  Level Albuquerque Center
12:59AM 33.9769 -106.2408 303° West 419 482 36,000  Climbing Albuquerque Center
01:00AM 34.0386 -106.3589 302° West 419 482 35,900 -60 Descending Albuquerque Center
01:01AM 34.1006 -106.4753 303° West 416 479 35,900  Level Albuquerque Center
01:02AM 34.1628 -106.5931 303° West 417 480 35,900  Level Albuquerque Center
01:03AM 34.2375 -106.7356 302° West 419 482 35,900  Level Albuquerque Center
01:04AM 34.3000 -106.8542 303° West 420 483 36,000  Climbing Albuquerque Center
01:05AM 34.3553 -106.9631 302° West 421 484 36,000  Level Albuquerque Center
01:06AM 34.4183 -107.0800 303° West 417 480 36,000  Level Albuquerque Center
01:07AM 34.4803 -107.2017 302° West 420 483 36,000  Level Albuquerque Center
01:08AM 34.5419 -107.3219 302° West 418 481 36,000  Level Albuquerque Center
01:09AM 34.6039 -107.4417 302° West 417 480 36,000  Level Albuquerque Center
01:10AM 34.6644 -107.5600 302° West 414 476 36,000  Level Albuquerque Center
01:11AM 34.7258 -107.6800 302° West 414 476 36,000  Level Albuquerque Center
01:12AM 34.7872 -107.7992 302° West 416 479 36,000  Level Albuquerque Center
01:13AM 34.8544 -107.9311 302° West 414 476 36,000  Level Albuquerque Center
01:14AM 34.9122 -108.0439 302° West 411 473 36,000  Level Albuquerque Center
01:15AM 34.9800 -108.1767 302° West 412 474 36,000  Level Albuquerque Center
01:16AM 35.0372 -108.2933 301° West 415 478 36,000  Level Albuquerque Center
01:17AM 35.0953 -108.4081 302° West 414 476 36,000  Level Albuquerque Center
01:18AM 35.1628 -108.5422 302° West 414 476 36,000  Level Albuquerque Center
01:19AM 35.2194 -108.6561 301° West 412 474 36,000  Level Albuquerque Center
01:20AM 35.2772 -108.7700 302° West 410 472 36,000  Level Albuquerque Center
01:21AM 35.3428 -108.9039 301° West 409 471 36,000  Level Albuquerque Center
01:22AM 35.3994 -109.0175 301° West 407 468 36,000 -60 Level Albuquerque Center
01:23AM 35.4550 -109.1314 301° West 406 467 35,900  Descending Albuquerque Center
01:24AM 35.5114 -109.2464 301° West 406 467 36,000  Climbing Albuquerque Center
01:25AM 35.5772 -109.3806 301° West 408 470 36,000  Level Albuquerque Center
01:26AM 35.6328 -109.4947 301° West 407 468 36,000  Level Albuquerque Center
01:27AM 35.6875 -109.6083 301° West 404 465 36,000  Level Albuquerque Center
01:28AM 35.7511 -109.7447 300° West 407 468 36,000  Level Albuquerque Center
01:29AM 35.8078 -109.8597 301° West 409 471 36,000  Level Albuquerque Center
01:30AM 35.8633 -109.9758 301° West 410 472 36,000  Level Albuquerque Center
01:31AM 35.9186 -110.0922 300° West 410 472 36,000  Level Albuquerque Center
01:32AM 35.9839 -110.2272 301° West 409 471 36,000  Level Albuquerque Center
01:33AM 36.0378 -110.3428 300° West 407 468 36,000  Level Albuquerque Center
01:34AM 36.0917 -110.4600 300° West 408 470 36,000  Level Albuquerque Center
01:35AM 36.1561 -110.5964 300° West 409 471 36,000  Level Albuquerque Center
01:36AM 36.2111 -110.7136 300° West 411 473 36,000  Level Albuquerque Center
01:37AM 36.2839 -110.8356 307° West 418 481 36,000  Level Los Angeles Center
01:39AM 36.3764 -110.9661 311° West 422 486 36,000  Level Denver Center
01:40AM 36.4533 -111.0744 311° West 420 483 36,000  Level Denver Center
01:41AM 36.5219 -111.1886 307° West 415 478 36,000  Level Denver Center
01:42AM 36.5856 -111.3036 305° West 407 468 36,000  Level Denver Center
01:43AM 36.6500 -111.4194 305° West 407 468 36,000  Level Denver Center
01:44AM 36.7164 -111.5358 305° West 411 473 36,000 -60 Level Denver Center
01:45AM 36.7675 -111.6269 305° West 406 467 35,900  Descending Los Angeles Center
01:46AM 36.8453 -111.7669 305° West 408 470 36,000  Climbing Los Angeles Center
01:47AM 36.9111 -111.8856 305° West 414 476 36,000  Level Los Angeles Center
01:48AM 36.9781 -112.0047 305° West 417 480 36,000  Level Los Angeles Center
01:48AM 37.0308 -112.0992 305° West 417 480 36,000  Level Los Angeles Center
01:49AM 37.0958 -112.2189 304° West 416 479 36,000  Level Los Angeles Center
01:50AM 37.1614 -112.3392 304° West 419 482 36,000  Level Los Angeles Center
01:51AM 37.2269 -112.4597 304° West 417 480 36,000  Level Los Angeles Center
01:52AM 37.2942 -112.5819 305° West 424 488 36,000  Level Los Angeles Center
01:53AM 37.3603 -112.7036 304° West 421 484 36,000  Level Los Angeles Center
01:54AM 37.4253 -112.8253 304° West 417 480 36,000 -60 Level Los Angeles Center
01:56AM 37.4906 -112.9486 304° West 414 476 35,900  Descending Los Angeles Center
01:57AM 37.5606 -113.0708 306° West 419 482 36,000  Climbing Los Angeles Center
01:58AM 37.6386 -113.1847 311° West 425 489 36,000  Level Los Angeles Center
01:58AM 37.7144 -113.2983 310° West 423 487 36,000  Level Salt Lake Center
02:00AM 37.7889 -113.4097 310° West 417 480 36,000  Level Salt Lake Center
02:01AM 37.8614 -113.5200 310° West 411 473 36,000  Level Salt Lake Center
02:02AM 37.9336 -113.6319 309° West 410 472 36,000  Level Salt Lake Center
02:03AM 37.9917 -113.7533 301° West 406 467 36,000  Level Salt Lake Center
02:04AM 38.0431 -113.8786 298° West 400 460 36,000 -60 Level Salt Lake Center
02:05AM 38.0936 -114.0033 297° West 400 460 35,900  Descending Salt Lake Center
02:06AM 38.1450 -114.1297 297° West 402 463 36,000  Climbing Salt Lake Center
02:07AM 38.1964 -114.2556 297° West 403 464 36,000  Level Salt Lake Center
02:08AM 38.2444 -114.3825 296° West 400 460 36,000  Level Salt Lake Center
02:09AM 38.2744 -114.5158 286° West 393 452 36,000  Level Salt Lake Center
02:10AM 38.2981 -114.6522 282° West 395 455 36,000  Level Salt Lake Center
02:11AM 38.3233 -114.7872 283° West 393 452 36,000  Level Salt Lake Center
02:12AM 38.3517 -114.9489 283° West 391 450 36,000  Level Salt Lake Center
02:13AM 38.3758 -115.0811 283° West 385 443 36,000 -60 Level Salt Lake Center
02:14AM 38.4000 -115.2147 283° West 387 445 35,900  Descending Salt Lake Center
02:15AM 38.4242 -115.3511 283° West 393 452 36,000  Climbing Salt Lake Center
02:16AM 38.4489 -115.4950 282° West 398 458 36,000  Level Salt Lake Center
02:17AM 38.4719 -115.6314 282° West 395 455 36,000 -60 Level Salt Lake Center
02:18AM 38.4956 -115.7689 282° West 397 457 35,900  Descending Salt Lake Center
02:19AM 38.5203 -115.9083 283° West 401 461 36,000  Climbing Salt Lake Center
02:20AM 38.5428 -116.0447 282° West 397 457 36,000  Level Salt Lake Center
02:21AM 38.5661 -116.1806 282° West 394 453 36,000 -60 Level Salt Lake Center
02:22AM 38.5892 -116.3175 282° West 396 456 35,900  Descending Salt Lake Center
02:23AM 38.6125 -116.4558 282° West 398 458 36,000  Climbing Salt Lake Center
02:24AM 38.6356 -116.5956 282° West 402 463 36,000  Level Salt Lake Center
02:25AM 38.6589 -116.7353 282° West 404 465 36,000  Level Salt Lake Center
02:26AM 38.6811 -116.8739 282° West 402 463 36,000 -360 Level Salt Lake Center
02:27AM 38.7044 -117.0122 282° West 401 461 35,300 -840 Descending Salt Lake Center
02:28AM 38.7267 -117.1503 282° West 400 460 34,300 -660 Descending Salt Lake Center
02:29AM 38.7489 -117.2933 281° West 409 471 34,000 -180 Descending Salt Lake Center
02:30AM 38.7578 -117.4369 275° West 408 470 34,000  Level Salt Lake Center
02:31AM 38.7481 -117.6106 266° West 407 468 34,000  Level Salt Lake Center
02:32AM 38.7394 -117.7542 266° West 407 468 34,000  Level Salt Lake Center
02:33AM 38.7303 -117.8978 265° West 408 470 34,000  Level Salt Lake Center
02:34AM 38.7208 -118.0406 265° West 405 466 34,000  Level Salt Lake Center
02:35AM 38.7117 -118.1850 265° West 408 470 34,000  Level Salt Lake Center
02:36AM 38.7019 -118.3281 265° West 405 466 34,000  Level Salt Lake Center
02:37AM 38.6925 -118.4728 265° West 411 473 34,000  Level Salt Lake Center
02:38AM 38.6792 -118.6781 265° West 410 472 34,000  Level Oakland Center
02:39AM 38.6686 -118.8231 265° West 409 471 34,000  Level Oakland Center
02:40AM 38.6575 -118.9717 265° West 414 476 34,000 -300 Level Oakland Center
02:41AM 38.6472 -119.1186 265° West 416 479 33,400 -1,860 Descending Oakland Center
02:42AM 38.6364 -119.2667 265° West 419 482 30,300 -2,760 Descending Oakland Center
02:43AM 38.6256 -119.4144 265° West 418 481 27,900 -2,340 Descending Oakland Center
02:44AM 38.6147 -119.5567 264° West 405 466 25,600 -2,340 Descending Oakland Center
02:45AM 38.6039 -119.6947 264° West 392 451 23,200 -2,520 Descending Oakland Center
02:46AM 38.5928 -119.8464 265° West 377 434 20,600 -2,400 Descending Oakland Center
02:47AM 38.5819 -119.9775 264° West 371 427 18,400 -2,280 Descending Oakland Center
02:48AM 38.5722 -120.1033 264° West 361 415 16,100 -1,260 Descending Oakland Center
02:49AM 38.5611 -120.2286 264° West 356 410 15,900 -60 Descending Oakland Center
02:50AM 38.5500 -120.3544 264° West 357 411 16,000  Climbing Oakland Center
02:51AM 38.5400 -120.4800 264° West 357 411 15,900 -1,080 Descending Oakland Center
02:53AM 38.5292 -120.6053 264° West 354 407 13,900 -2,100 Descending Oakland Center
02:54AM 38.5183 -120.7269 264° West 346 398 11,700 -2,040 Descending Oakland Center
02:55AM 38.5078 -120.8475 264° West 342 394 9,900 -1,320 Descending Oakland Center
02:56AM 38.4986 -120.9550 264° West 303 349 9,100 -1,200 Descending Oakland Center
02:57AM 38.4892 -121.0603 263° West 297 342 7,600 -1,560 Descending Oakland Center
02:58AM 38.4797 -121.1656 263° West 286 329 6,000 -1,200 Descending Oakland Center
02:59AM 38.4711 -121.2617 264° West 273 314 5,200 -720 Descending Oakland Center
03:00AM 38.4631 -121.3453 263° West 250 288 4,600 -840 Descending Oakland Center
03:01AM 38.4558 -121.4217 263° West 225 259 3,600 -900 Descending Oakland Center
03:02AM 38.4814 -121.4781 300° West 199 229 2,900 -900 Descending Oakland Center
03:03AM 38.5242 -121.5147 326° Northwest 181 208 1,800 -720 Descending Oakland Center
03:04AM 38.5642 -121.5506 325° Northwest 176 203 1,500 -240 Descending Oakland Center
03:05AM 38.5992 -121.5761 330° Northwest 154 177 1,400 -300 Descending Oakland Center
03:05AM 38.6167 -121.5833 342° North 138 159 1,100 -720 Descending Northern Cal TRACON
03:06AM 38.6500 -121.5833 360° North 140 161 400 -720 Descending Northern Cal TRACON
03:10AM 38.6833 -121.5833 351° North  Level FlightAware Approximate